Time;durP1;ratioP1;P1;durP2;ratioP2;P2;SDS_P1;SDS_P2;PMS_P1;PMS_P2;Temp;Humidity;BMP_temperature;BMP_pressure;BME280_temperature;BME280_humidity;BME280_pressure;Samples;Min_cycle;Max_cycle;Signal;HPM_P1;HPM_P2
2022/07/04 00:01:33;;;;;;;32.15;6.15;;;;;;;;;;4935304;29;20035;-60
2022/07/04 00:04:00;;;;;;;29.23;5.43;;;;;;;;;;4928606;29;20398;-60
2022/07/04 00:06:27;;;;;;;46.33;6.63;;;;;;;;;;4931400;29;20035;-61
2022/07/04 00:08:54;;;;;;;37.65;6.30;;;;;;;;;;4933125;29;20082;-60
2022/07/04 00:11:21;;;;;;;37.03;6.43;;;;;;;;;;4930379;29;20034;-60
2022/07/04 00:13:48;;;;;;;42.92;6.20;;;;;;;;;;4934665;29;20506;-60
2022/07/04 00:16:14;;;;;;;41.03;6.45;;;;;;;;;;4944150;29;20052;-60
2022/07/04 00:18:41;;;;;;;36.00;6.32;;;;;;;;;;4933285;29;20034;-60
2022/07/04 00:21:08;;;;;;;37.55;6.50;;;;;;;;;;4936367;29;20122;-61
2022/07/04 00:23:35;;;;;;;35.15;6.32;;;;;;;;;;4934207;29;20039;-60
2022/07/04 00:26:02;;;;;;;39.67;6.82;;;;;;;;;;4941780;29;20067;-60
2022/07/04 00:28:29;;;;;;;41.90;6.70;;;;;;;;;;4943316;29;20034;-60
2022/07/04 00:30:56;;;;;;;37.83;6.88;;;;;;;;;;4933472;29;20409;-60
2022/07/04 00:33:23;;;;;;;37.35;7.45;;;;;;;;;;4935783;29;20035;-60
2022/07/04 00:35:50;;;;;;;43.35;8.20;;;;;;;;;;4936677;29;20032;-60
2022/07/04 00:38:18;;;;;;;37.15;6.68;;;;;;;;;;4949101;29;20031;-60
2022/07/04 00:40:44;;;;;;;37.67;7.25;;;;;;;;;;4940524;29;20134;-60
2022/07/04 00:43:11;;;;;;;29.45;6.70;;;;;;;;;;4946557;29;20465;-60
2022/07/04 00:45:38;;;;;;;34.30;7.00;;;;;;;;;;4946481;29;20775;-60
2022/07/04 00:48:05;;;;;;;37.67;7.13;;;;;;;;;;4946184;29;20140;-60
2022/07/04 00:50:33;;;;;;;29.83;7.10;;;;;;;;;;4943244;29;20028;-60
2022/07/04 00:53:00;;;;;;;23.73;6.35;;;;;;;;;;4943238;29;20086;-60
2022/07/04 00:55:27;;;;;;;33.17;6.85;;;;;;;;;;4940650;29;20474;-61
2022/07/04 00:57:54;;;;;;;32.78;6.50;;;;;;;;;;4933750;29;20126;-60
2022/07/04 01:00:21;;;;;;;34.88;7.22;;;;;;;;;;4945132;29;20023;-60
2022/07/04 01:02:48;;;;;;;33.08;6.97;;;;;;;;;;4936688;29;20031;-59
2022/07/04 01:05:15;;;;;;;39.78;7.43;;;;;;;;;;4949228;29;20051;-60
2022/07/04 01:07:43;;;;;;;39.72;6.72;;;;;;;;;;4933274;29;20036;-59
2022/07/04 01:10:10;;;;;;;33.28;7.38;;;;;;;;;;4930962;29;20039;-59
2022/07/04 01:12:37;;;;;;;38.80;6.70;;;;;;;;;;4936313;29;20573;-60
2022/07/04 01:15:05;;;;;;;30.88;6.68;;;;;;;;;;4930236;29;20048;-61
2022/07/04 01:17:32;;;;;;;30.25;6.63;;;;;;;;;;4947898;29;20054;-59
2022/07/04 01:19:59;;;;;;;29.15;6.43;;;;;;;;;;4942715;28;20106;-60
2022/07/04 01:22:26;;;;;;;30.95;6.10;;;;;;;;;;4942400;28;20513;-60
2022/07/04 01:24:53;;;;;;;34.58;6.85;;;;;;;;;;4949809;29;20120;-59
2022/07/04 01:27:20;;;;;;;42.67;6.32;;;;;;;;;;4946496;29;20053;-61
2022/07/04 01:29:48;;;;;;;52.42;6.95;;;;;;;;;;4948121;29;20093;-60
2022/07/04 01:32:16;;;;;;;34.70;6.22;;;;;;;;;;4937867;29;20041;-61
2022/07/04 01:34:42;;;;;;;33.08;6.60;;;;;;;;;;4926154;29;20063;-61
2022/07/04 01:37:09;;;;;;;29.42;6.13;;;;;;;;;;4928374;29;20040;-60
2022/07/04 01:39:36;;;;;;;32.50;5.50;;;;;;;;;;4939583;29;20027;-60
2022/07/04 01:42:04;;;;;;;25.92;5.57;;;;;;;;;;4933901;29;20031;-61
2022/07/04 01:44:31;;;;;;;43.85;6.28;;;;;;;;;;4933535;29;20031;-61
2022/07/04 01:46:58;;;;;;;36.17;5.97;;;;;;;;;;4938834;29;20114;-60
2022/07/04 01:49:25;;;;;;;32.85;5.50;;;;;;;;;;4945700;29;20024;-60
2022/07/04 01:51:52;;;;;;;23.17;5.25;;;;;;;;;;4946070;29;20073;-60
2022/07/04 01:54:19;;;;;;;32.50;5.50;;;;;;;;;;4952289;29;20478;-60
2022/07/04 01:56:47;;;;;;;21.00;4.78;;;;;;;;;;4945284;29;20047;-60
2022/07/04 01:59:14;;;;;;;18.88;4.95;;;;;;;;;;4946487;29;20039;-60
2022/07/04 02:01:41;;;;;;;21.40;5.30;;;;;;;;;;4941365;29;20028;-60
2022/07/04 02:04:08;;;;;;;28.83;5.47;;;;;;;;;;4941429;29;20034;-60
2022/07/04 02:06:36;;;;;;;27.15;5.18;;;;;;;;;;4943847;29;20095;-60
2022/07/04 02:09:16;;;;;;;19.63;4.95;;;;;;;;;;4943747;29;20027;-60
2022/07/04 02:14:30;;;;;;;32.05;5.25;;;;;;;;;;4934567;29;20517;-60
2022/07/04 02:16:57;;;;;;;28.02;4.82;;;;;;;;;;4934419;29;20047;-60
2022/07/04 02:19:24;;;;;;;25.83;5.10;;;;;;;;;;4934043;29;20106;-60
2022/07/04 02:21:51;;;;;;;19.85;4.75;;;;;;;;;;4934009;29;20039;-60
2022/07/04 02:24:19;;;;;;;26.85;4.93;;;;;;;;;;4934305;29;20043;-60
2022/07/04 02:26:46;;;;;;;24.23;4.32;;;;;;;;;;4944404;29;20036;-60
2022/07/04 02:29:13;;;;;;;22.52;4.60;;;;;;;;;;4953016;29;20027;-60
2022/07/04 02:31:40;;;;;;;20.00;3.70;;;;;;;;;;4953726;28;20375;-60
2022/07/04 02:34:07;;;;;;;23.40;4.50;;;;;;;;;;4956843;29;20401;-60
2022/07/04 02:36:34;;;;;;;19.85;4.35;;;;;;;;;;4956564;29;20086;-60
2022/07/04 02:39:01;;;;;;;21.13;4.32;;;;;;;;;;4957458;29;20405;-60
2022/07/04 02:41:28;;;;;;;19.35;4.65;;;;;;;;;;4956898;29;20061;-60
2022/07/04 02:43:55;;;;;;;14.18;3.78;;;;;;;;;;4957070;29;20371;-60
2022/07/04 02:46:22;;;;;;;14.82;3.95;;;;;;;;;;4956556;29;20023;-60
2022/07/04 02:48:49;;;;;;;15.63;3.80;;;;;;;;;;4957155;29;20042;-60
2022/07/04 02:51:16;;;;;;;15.43;3.83;;;;;;;;;;4956606;29;20027;-60
2022/07/04 02:53:43;;;;;;;18.08;3.55;;;;;;;;;;4956569;29;20047;-60
2022/07/04 02:56:10;;;;;;;14.82;3.72;;;;;;;;;;4956519;29;20035;-60
2022/07/04 02:58:37;;;;;;;17.13;4.00;;;;;;;;;;4956650;29;20039;-60
2022/07/04 03:01:04;;;;;;;15.73;3.42;;;;;;;;;;4956613;29;20390;-60
2022/07/04 03:03:31;;;;;;;11.45;3.65;;;;;;;;;;4956171;29;20031;-60
2022/07/04 03:05:58;;;;;;;15.70;3.70;;;;;;;;;;4957116;29;20028;-60
2022/07/04 03:08:25;;;;;;;17.95;3.20;;;;;;;;;;4955964;29;20481;-60
2022/07/04 03:10:52;;;;;;;15.52;3.50;;;;;;;;;;4956657;29;20038;-60
2022/07/04 03:13:19;;;;;;;13.50;3.40;;;;;;;;;;4955869;29;20028;-60
2022/07/04 03:15:46;;;;;;;10.73;3.28;;;;;;;;;;4956574;29;20050;-60
2022/07/04 03:18:13;;;;;;;13.48;3.03;;;;;;;;;;4956363;29;20458;-60
2022/07/04 03:20:40;;;;;;;15.85;3.45;;;;;;;;;;4956716;29;20027;-60
2022/07/04 03:23:07;;;;;;;10.68;3.05;;;;;;;;;;4955911;29;20102;-60
2022/07/04 03:25:34;;;;;;;15.38;3.17;;;;;;;;;;4956075;29;20035;-60
2022/07/04 03:28:01;;;;;;;11.75;2.90;;;;;;;;;;4955780;29;20031;-60
2022/07/04 03:30:28;;;;;;;11.68;2.60;;;;;;;;;;4956502;29;20043;-60
2022/07/04 03:32:55;;;;;;;8.85;2.75;;;;;;;;;;4956324;29;20031;-60
2022/07/04 03:35:22;;;;;;;11.23;2.72;;;;;;;;;;4956024;29;20500;-60
2022/07/04 03:37:50;;;;;;;8.65;2.90;;;;;;;;;;4955832;29;20473;-60
2022/07/04 03:40:18;;;;;;;11.93;3.25;;;;;;;;;;4956102;29;20050;-60
2022/07/04 03:42:45;;;;;;;10.23;2.65;;;;;;;;;;4955290;28;20031;-60
2022/07/04 03:45:12;;;;;;;13.63;2.60;;;;;;;;;;4955825;29;20035;-60
2022/07/04 03:47:39;;;;;;;11.18;2.53;;;;;;;;;;4955196;29;20023;-60
2022/07/04 03:50:06;;;;;;;8.60;2.53;;;;;;;;;;4955916;29;20058;-60
2022/07/04 03:52:33;;;;;;;7.97;2.50;;;;;;;;;;4955424;29;20410;-60
2022/07/04 03:55:00;;;;;;;9.38;2.42;;;;;;;;;;4956040;29;20031;-60
2022/07/04 03:57:27;;;;;;;11.02;2.67;;;;;;;;;;4955595;29;20023;-60
2022/07/04 03:59:54;;;;;;;12.93;2.58;;;;;;;;;;4955388;29;20418;-60
2022/07/04 04:02:21;;;;;;;12.20;2.15;;;;;;;;;;4955324;29;20035;-60
2022/07/04 04:07:33;;;;;;;10.32;3.08;;;;;;;;;;4955189;29;20094;-59
2022/07/04 04:10:00;;;;;;;5.07;1.90;;;;;;;;;;4955771;29;20027;-60
2022/07/04 04:12:27;;;;;;;7.85;2.17;;;;;;;;;;4955024;29;20099;-60
2022/07/04 04:14:54;;;;;;;7.70;1.83;;;;;;;;;;4954892;29;20055;-60
2022/07/04 04:17:21;;;;;;;12.20;2.00;;;;;;;;;;4954974;29;20035;-60
2022/07/04 04:19:48;;;;;;;8.07;2.00;;;;;;;;;;4955760;29;20441;-60
2022/07/04 04:22:15;;;;;;;9.95;1.98;;;;;;;;;;4954931;29;20079;-60
2022/07/04 04:24:42;;;;;;;5.78;1.60;;;;;;;;;;4954722;29;20023;-60
2022/07/04 04:27:09;;;;;;;7.15;1.85;;;;;;;;;;4954863;29;20031;-60
2022/07/04 04:29:36;;;;;;;8.13;2.00;;;;;;;;;;4955572;29;20023;-60
2022/07/04 04:32:03;;;;;;;6.97;1.95;;;;;;;;;;4954568;29;20070;-60
2022/07/04 04:34:30;;;;;;;6.15;1.58;;;;;;;;;;4954980;29;20461;-60
2022/07/04 04:36:57;;;;;;;7.75;1.70;;;;;;;;;;4954886;29;20037;-60
2022/07/04 04:39:24;;;;;;;5.68;1.90;;;;;;;;;;4954605;29;20486;-60
2022/07/04 04:41:51;;;;;;;5.53;1.67;;;;;;;;;;4954614;29;20027;-60
2022/07/04 04:44:19;;;;;;;7.30;1.88;;;;;;;;;;4954719;29;20086;-60
2022/07/04 04:46:46;;;;;;;3.70;1.50;;;;;;;;;;4955018;29;20031;-60
2022/07/04 04:49:13;;;;;;;4.78;1.90;;;;;;;;;;4955060;29;20049;-60
2022/07/04 04:51:40;;;;;;;7.72;1.70;;;;;;;;;;4954400;29;20537;-60
2022/07/04 04:54:07;;;;;;;6.80;1.55;;;;;;;;;;4954559;29;20046;-60
2022/07/04 04:56:34;;;;;;;5.18;1.70;;;;;;;;;;4954582;28;20042;-60
2022/07/04 04:59:01;;;;;;;8.65;1.73;;;;;;;;;;4954188;29;20500;-60
2022/07/04 05:01:28;;;;;;;6.35;2.00;;;;;;;;;;4954207;29;20031;-60
2022/07/04 05:03:55;;;;;;;8.48;1.92;;;;;;;;;;4954303;29;20027;-60
2022/07/04 05:06:22;;;;;;;5.57;1.52;;;;;;;;;;4954283;29;20027;-60
2022/07/04 05:08:49;;;;;;;5.82;1.40;;;;;;;;;;4954676;29;20028;-60
2022/07/04 05:11:16;;;;;;;5.70;1.58;;;;;;;;;;4953091;29;20046;-60
2022/07/04 05:13:43;;;;;;;4.95;1.55;;;;;;;;;;4954239;29;20027;-60
2022/07/04 05:16:10;;;;;;;3.78;1.25;;;;;;;;;;4954012;29;20502;-60
2022/07/04 05:18:37;;;;;;;3.35;1.40;;;;;;;;;;4954061;29;20031;-60
2022/07/04 05:21:04;;;;;;;5.05;1.30;;;;;;;;;;4954021;29;20039;-60
2022/07/04 05:23:31;;;;;;;4.45;1.48;;;;;;;;;;4954652;29;20035;-60
2022/07/04 05:25:58;;;;;;;6.80;1.50;;;;;;;;;;4954423;29;20405;-60
2022/07/04 05:28:25;;;;;;;5.80;1.77;;;;;;;;;;4952972;29;20039;-60
2022/07/04 05:30:52;;;;;;;5.25;1.40;;;;;;;;;;4953561;29;20489;-60
2022/07/04 05:33:19;;;;;;;5.88;1.35;;;;;;;;;;4954171;29;20035;-60
2022/07/04 05:35:46;;;;;;;4.10;1.33;;;;;;;;;;4953926;29;20037;-60
2022/07/04 05:38:13;;;;;;;6.90;1.20;;;;;;;;;;4953396;29;20031;-60
2022/07/04 05:40:40;;;;;;;4.43;1.20;;;;;;;;;;4954263;29;20042;-60
2022/07/04 05:43:07;;;;;;;6.38;1.30;;;;;;;;;;4953579;29;20027;-60
2022/07/04 05:45:33;;;;;;;6.20;1.40;;;;;;;;;;4954274;29;20118;-60
2022/07/04 05:48:00;;;;;;;2.90;1.50;;;;;;;;;;4953440;29;20574;-60
2022/07/04 05:50:27;;;;;;;6.38;1.30;;;;;;;;;;4954191;29;20114;-60
2022/07/04 05:52:54;;;;;;;3.78;1.33;;;;;;;;;;4953425;29;20062;-60
2022/07/04 05:55:21;;;;;;;2.95;1.15;;;;;;;;;;4954088;29;20027;-60
2022/07/04 05:57:48;;;;;;;3.35;1.33;;;;;;;;;;4953607;29;20031;-60
2022/07/04 06:00:15;;;;;;;9.38;1.55;;;;;;;;;;4953981;29;20038;-60
2022/07/04 06:02:42;;;;;;;4.05;1.30;;;;;;;;;;4953831;29;20095;-60
2022/07/04 06:05:09;;;;;;;5.80;1.30;;;;;;;;;;4953632;29;20397;-60
2022/07/04 06:10:53;;;;;;;4.72;1.23;;;;;;;;;;4957707;29;20405;-60
2022/07/04 06:13:20;;;;;;;6.13;1.30;;;;;;;;;;4956114;29;20031;-61
2022/07/04 06:15:47;;;;;;;5.97;1.20;;;;;;;;;;4957632;29;20043;-60
2022/07/04 06:18:14;;;;;;;3.60;1.10;;;;;;;;;;4957095;29;20035;-60
2022/07/04 06:20:41;;;;;;;3.15;1.40;;;;;;;;;;4956900;29;20067;-60
2022/07/04 06:23:08;;;;;;;5.82;1.35;;;;;;;;;;4940418;29;20074;-61
2022/07/04 06:25:36;;;;;;;4.28;1.25;;;;;;;;;;4939847;29;20039;-60
2022/07/04 06:28:03;;;;;;;7.43;1.50;;;;;;;;;;4957365;29;20043;-60
2022/07/04 06:30:30;;;;;;;2.95;1.20;;;;;;;;;;4956849;29;20031;-60
2022/07/04 06:32:59;;;;;;;3.78;1.40;;;;;;;;;;5092760;23;20108;-63
2022/07/04 06:35:54;;;;;;;3.92;1.13;;;;;;;;;;4978225;28;20396;-62
2022/07/04 06:38:28;;;;;;;4.32;1.25;;;;;;;;;;4976558;28;20105;-62
2022/07/04 06:40:57;;;;;;;6.90;1.40;;;;;;;;;;4976249;28;20033;-62
2022/07/04 06:43:24;;;;;;;3.85;1.00;;;;;;;;;;4976083;28;20035;-62
2022/07/04 06:45:51;;;;;;;5.95;1.35;;;;;;;;;;4976422;28;20035;-62
2022/07/04 06:48:19;;;;;;;6.13;1.35;;;;;;;;;;4976529;28;20031;-62
2022/07/04 06:50:46;;;;;;;3.88;1.30;;;;;;;;;;4975997;28;20038;-62
2022/07/04 06:53:13;;;;;;;6.18;1.30;;;;;;;;;;4976503;28;20025;-62
2022/07/04 06:55:40;;;;;;;2.92;1.25;;;;;;;;;;4975812;28;20034;-62
2022/07/04 06:58:08;;;;;;;7.60;1.63;;;;;;;;;;4976421;28;20034;-62
2022/07/04 07:00:35;;;;;;;6.70;1.25;;;;;;;;;;4958248;28;20437;-63
2022/07/04 07:03:03;;;;;;;4.95;1.25;;;;;;;;;;4976233;28;20037;-63
2022/07/04 07:05:30;;;;;;;8.00;1.30;;;;;;;;;;4975949;28;20397;-62
2022/07/04 07:07:57;;;;;;;5.97;1.40;;;;;;;;;;4974742;28;20047;-62
2022/07/04 07:10:24;;;;;;;4.30;1.35;;;;;;;;;;4975350;28;20026;-62
2022/07/04 07:12:51;;;;;;;6.97;1.30;;;;;;;;;;4975194;28;20034;-62
2022/07/04 07:15:19;;;;;;;4.95;1.58;;;;;;;;;;4975461;28;20027;-62
2022/07/04 07:17:46;;;;;;;4.30;1.40;;;;;;;;;;4974790;28;20053;-62
2022/07/04 07:20:13;;;;;;;3.25;1.42;;;;;;;;;;4975139;28;20066;-62
2022/07/04 07:22:41;;;;;;;4.63;1.35;;;;;;;;;;4975187;28;20030;-62
2022/07/04 07:25:09;;;;;;;7.10;1.52;;;;;;;;;;4975063;28;20167;-62
2022/07/04 07:27:36;;;;;;;4.50;1.38;;;;;;;;;;4975442;28;20117;-62
2022/07/04 07:30:03;;;;;;;4.25;1.50;;;;;;;;;;4975301;28;20117;-62
2022/07/04 07:32:30;;;;;;;3.70;1.58;;;;;;;;;;4974867;28;20386;-62
2022/07/04 07:34:57;;;;;;;3.63;1.33;;;;;;;;;;4974921;28;20035;-62
2022/07/04 07:37:24;;;;;;;2.22;1.42;;;;;;;;;;4975275;28;20125;-62
2022/07/04 07:39:51;;;;;;;2.75;1.35;;;;;;;;;;4975159;28;20038;-62
2022/07/04 07:42:18;;;;;;;3.17;1.50;;;;;;;;;;4975055;28;20027;-62
2022/07/04 07:44:46;;;;;;;6.00;1.35;;;;;;;;;;4975089;28;20039;-62
2022/07/04 07:47:15;;;;;;;4.43;1.35;;;;;;;;;;4974561;28;20043;-62
2022/07/04 07:49:43;;;;;;;2.90;1.17;;;;;;;;;;4974878;28;20027;-62
2022/07/04 07:52:10;;;;;;;6.00;1.95;;;;;;;;;;4974806;28;20027;-62
2022/07/04 07:54:37;;;;;;;4.38;1.48;;;;;;;;;;4974912;28;20037;-62
2022/07/04 07:57:04;;;;;;;4.40;1.42;;;;;;;;;;4974852;28;20035;-62
2022/07/04 07:59:31;;;;;;;3.78;1.55;;;;;;;;;;4975035;28;20446;-62
2022/07/04 08:01:58;;;;;;;4.85;1.50;;;;;;;;;;4974576;28;20027;-62
2022/07/04 08:04:41;;;;;;;8.20;1.27;;;;;;;;;;4974214;28;20042;-62
2022/07/04 08:07:14;;;;;;;3.83;1.30;;;;;;;;;;4974297;28;20113;-62
2022/07/04 08:09:41;;;;;;;4.15;1.23;;;;;;;;;;4974372;28;20046;-62
2022/07/04 08:12:08;;;;;;;3.35;1.20;;;;;;;;;;4974655;28;20058;-62
2022/07/04 08:14:35;;;;;;;2.50;1.17;;;;;;;;;;4974402;28;20389;-62
2022/07/04 08:17:05;;;;;;;3.67;1.40;;;;;;;;;;4974649;28;20037;-62
2022/07/04 08:19:32;;;;;;;6.00;1.70;;;;;;;;;;4974352;28;20409;-62
2022/07/04 08:21:59;;;;;;;4.95;1.25;;;;;;;;;;4974177;28;20126;-62
2022/07/04 08:24:26;;;;;;;4.15;1.50;;;;;;;;;;4973960;28;20042;-62
2022/07/04 08:26:53;;;;;;;4.15;1.45;;;;;;;;;;4974191;28;20026;-62
2022/07/04 08:29:20;;;;;;;3.60;1.30;;;;;;;;;;4973855;28;20477;-62
2022/07/04 08:31:48;;;;;;;2.53;1.33;;;;;;;;;;4973791;28;20514;-62
2022/07/04 08:34:15;;;;;;;2.63;1.00;;;;;;;;;;4974368;28;20035;-62
2022/07/04 08:36:42;;;;;;;3.55;1.50;;;;;;;;;;4973773;28;20485;-62
2022/07/04 08:39:09;;;;;;;5.18;1.35;;;;;;;;;;4973859;28;20030;-62
2022/07/04 08:41:40;;;;;;;3.58;1.13;;;;;;;;;;4973781;28;20039;-62
2022/07/04 08:44:10;;;;;;;2.97;1.27;;;;;;;;;;4973617;28;20089;-62
2022/07/04 08:46:41;;;;;;;1.85;1.10;;;;;;;;;;4973781;28;20114;-62
2022/07/04 08:49:12;;;;;;;5.05;1.40;;;;;;;;;;4956495;28;20034;-62
2022/07/04 08:51:44;;;;;;;5.15;1.30;;;;;;;;;;4971989;28;20117;-62
2022/07/04 08:59:45;;;;;;;2.38;1.30;;;;;;;;;;4974346;28;20404;-62
2022/07/04 09:02:14;;;;;;;3.97;1.10;;;;;;;;;;4973319;28;20105;-62
2022/07/04 09:04:42;;;;;;;2.67;1.40;;;;;;;;;;4973497;28;20393;-62
2022/07/04 09:07:09;;;;;;;2.47;1.42;;;;;;;;;;4973999;28;20041;-62
2022/07/04 09:09:36;;;;;;;3.67;1.40;;;;;;;;;;4973323;28;20035;-62
2022/07/04 09:12:03;;;;;;;4.32;1.27;;;;;;;;;;4973413;28;20038;-62
2022/07/04 09:14:30;;;;;;;3.20;1.25;;;;;;;;;;4974005;28;20031;-62
2022/07/04 09:16:57;;;;;;;3.03;1.30;;;;;;;;;;4971681;28;20464;-62
2022/07/04 09:19:25;;;;;;;3.83;1.30;;;;;;;;;;4973605;28;20031;-62
2022/07/04 09:21:51;;;;;;;2.15;1.17;;;;;;;;;;4973230;28;20043;-62
2022/07/04 09:24:38;;;;;;;2.15;1.27;;;;;;;;;;4972810;28;20037;-62
2022/07/04 09:27:05;;;;;;;1.33;1.00;;;;;;;;;;4973226;28;20039;-63
2022/07/04 09:29:34;;;;;;;2.42;1.20;;;;;;;;;;4973598;28;20035;-62
2022/07/04 09:32:01;;;;;;;3.40;1.40;;;;;;;;;;4973005;28;20560;-62
2022/07/04 09:34:28;;;;;;;4.50;1.33;;;;;;;;;;4972819;28;20521;-62
2022/07/04 09:36:56;;;;;;;3.42;1.42;;;;;;;;;;4973103;28;20034;-62
2022/07/04 09:39:23;;;;;;;3.30;1.40;;;;;;;;;;4973333;28;20481;-62
2022/07/04 09:42:00;;;;;;;3.55;1.40;;;;;;;;;;4971588;28;20117;-63
2022/07/04 09:44:30;;;;;;;2.15;1.10;;;;;;;;;;4972154;28;20037;-62
2022/07/04 09:46:57;;;;;;;2.58;1.30;;;;;;;;;;4973404;28;20046;-62
2022/07/04 09:49:24;;;;;;;2.38;1.30;;;;;;;;;;4972730;28;20077;-62
2022/07/04 09:51:52;;;;;;;5.10;1.60;;;;;;;;;;4973110;28;20031;-64
2022/07/04 09:54:22;;;;;;;5.60;1.40;;;;;;;;;;4972138;28;20105;-62
2022/07/04 09:56:53;;;;;;;5.82;1.90;;;;;;;;;;4972081;28;20042;-62
2022/07/04 09:59:20;;;;;;;7.63;1.33;;;;;;;;;;4973486;28;20030;-62
2022/07/04 10:01:47;;;;;;;6.10;1.65;;;;;;;;;;4973392;28;20042;-62
2022/07/04 10:04:15;;;;;;;7.60;1.80;;;;;;;;;;4972310;28;20572;-63
2022/07/04 10:06:43;;;;;;;8.07;1.55;;;;;;;;;;4973064;28;20791;-62
2022/07/04 10:09:13;;;;;;;11.50;1.92;;;;;;;;;;4964890;28;20089;-63
2022/07/04 10:11:41;;;;;;;19.00;2.40;;;;;;;;;;4971403;28;20377;-63
2022/07/04 10:14:09;;;;;;;8.27;1.52;;;;;;;;;;4966259;28;20734;-64
2022/07/04 10:16:36;;;;;;;6.40;1.63;;;;;;;;;;4970660;28;20039;-64
2022/07/04 10:19:04;;;;;;;7.90;2.05;;;;;;;;;;4968596;28;20039;-61
2022/07/04 10:21:31;;;;;;;6.93;1.73;;;;;;;;;;4969459;28;20042;-63
2022/07/04 10:23:58;;;;;;;9.90;2.00;;;;;;;;;;4971467;28;20029;-62
2022/07/04 10:26:25;;;;;;;12.70;2.33;;;;;;;;;;4971172;28;20031;-65
2022/07/04 10:28:52;;;;;;;9.32;2.28;;;;;;;;;;4971753;28;20045;-65
2022/07/04 10:31:21;;;;;;;13.57;2.10;;;;;;;;;;4966704;28;20118;-65
2022/07/04 10:33:48;;;;;;;4.97;1.70;;;;;;;;;;4967009;28;20034;-65
2022/07/04 10:36:17;;;;;;;16.27;2.40;;;;;;;;;;4968129;28;20034;-64
2022/07/04 10:39:04;;;;;;;15.05;2.30;;;;;;;;;;4971201;28;20039;-65
2022/07/04 10:41:31;;;;;;;12.32;2.35;;;;;;;;;;4966105;28;20023;-65
2022/07/04 10:44:05;;;;;;;10.30;2.10;;;;;;;;;;4971367;28;20041;-65
2022/07/04 10:46:32;;;;;;;12.82;1.95;;;;;;;;;;4970557;28;20034;-65
2022/07/04 10:49:04;;;;;;;9.27;1.92;;;;;;;;;;4965373;28;20074;-64
2022/07/04 10:51:47;;;;;;;8.77;2.35;;;;;;;;;;4966731;28;20088;-64
2022/07/04 10:54:14;;;;;;;11.77;1.95;;;;;;;;;;4971663;28;20110;-65
2022/07/04 10:56:46;;;;;;;11.30;2.40;;;;;;;;;;4971945;28;20047;-65
2022/07/04 10:59:14;;;;;;;6.18;1.85;;;;;;;;;;4974417;28;20022;-65
2022/07/04 11:01:46;;;;;;;7.97;1.85;;;;;;;;;;4974239;28;20037;-65
2022/07/04 11:04:13;;;;;;;13.95;1.88;;;;;;;;;;4971107;28;20372;-65
2022/07/04 11:06:42;;;;;;;9.57;2.00;;;;;;;;;;4975879;28;20022;-65
2022/07/04 11:09:16;;;;;;;10.75;1.80;;;;;;;;;;4970296;28;20034;-64
2022/07/04 11:11:52;;;;;;;18.00;2.20;;;;;;;;;;4970884;28;20049;-67
2022/07/04 11:14:37;;;;;;;29.00;2.97;;;;;;;;;;4973672;28;20038;-66
2022/07/04 11:17:05;;;;;;;14.90;2.15;;;;;;;;;;4974679;28;20065;-65
2022/07/04 11:19:32;;;;;;;17.73;2.85;;;;;;;;;;4974743;28;20042;-60
2022/07/04 11:22:00;;;;;;;29.80;3.60;;;;;;;;;;4962824;28;20137;-62
2022/07/04 11:24:28;;;;;;;24.30;2.95;;;;;;;;;;4969130;28;20362;-63
2022/07/04 11:26:55;;;;;;;29.75;3.50;;;;;;;;;;4974308;28;20034;-63
2022/07/04 11:29:22;;;;;;;89.35;7.47;;;;;;;;;;4966809;28;20511;-62
2022/07/04 11:31:50;;;;;;;83.63;7.30;;;;;;;;;;4953659;28;20492;-63
2022/07/04 11:34:17;;;;;;;59.85;6.40;;;;;;;;;;4973309;28;20027;-64
2022/07/04 11:36:45;;;;;;;56.13;6.32;;;;;;;;;;4969611;28;20041;-64
2022/07/04 11:39:18;;;;;;;33.40;5.82;;;;;;;;;;4952481;29;20035;-62
2022/07/04 11:47:20;;;;;;;82.82;8.68;;;;;;;;;;4964987;28;20049;-65
2022/07/04 11:49:54;;;;;;;60.10;7.22;;;;;;;;;;4957087;28;20038;-66
2022/07/04 11:52:23;;;;;;;58.85;6.65;;;;;;;;;;4965937;28;20034;-66
2022/07/04 11:54:50;;;;;;;50.83;6.47;;;;;;;;;;4973942;28;20031;-66
2022/07/04 11:57:17;;;;;;;43.55;6.28;;;;;;;;;;4973113;28;20073;-67
2022/07/04 11:59:52;;;;;;;38.05;5.97;;;;;;;;;;4973760;28;20038;-66
2022/07/04 12:02:19;;;;;;;40.95;6.63;;;;;;;;;;4975628;28;20031;-66
2022/07/04 12:04:46;;;;;;;42.42;5.95;;;;;;;;;;4970904;28;20034;-67
2022/07/04 12:07:14;;;;;;;39.55;6.35;;;;;;;;;;4974199;28;20037;-66
2022/07/04 12:09:42;;;;;;;38.92;5.88;;;;;;;;;;4973421;28;20137;-66
2022/07/04 12:12:09;;;;;;;51.33;7.07;;;;;;;;;;4967043;28;20114;-67
2022/07/04 12:14:36;;;;;;;38.47;6.05;;;;;;;;;;4969614;28;20031;-66
2022/07/04 12:17:14;;;;;;;36.40;6.13;;;;;;;;;;4969806;28;20045;-66
2022/07/04 12:20:00;;;;;;;40.47;5.28;;;;;;;;;;4972892;28;20035;-66
2022/07/04 12:22:29;;;;;;;32.60;5.38;;;;;;;;;;4964097;28;20058;-67
2022/07/04 12:24:57;;;;;;;33.10;6.53;;;;;;;;;;4972946;28;20130;-66
2022/07/04 12:27:24;;;;;;;35.83;6.53;;;;;;;;;;4971546;28;20022;-67
2022/07/04 12:29:53;;;;;;;37.75;6.00;;;;;;;;;;4962841;28;20086;-66
2022/07/04 12:32:20;;;;;;;36.97;6.13;;;;;;;;;;4972932;28;20074;-67
2022/07/04 12:34:47;;;;;;;37.80;5.70;;;;;;;;;;4968792;28;20031;-67
2022/07/04 12:37:14;;;;;;;34.47;5.80;;;;;;;;;;4962212;28;20035;-66
2022/07/04 12:39:46;;;;;;;34.67;5.55;;;;;;;;;;4972958;28;20027;-66
2022/07/04 12:42:13;;;;;;;30.65;5.60;;;;;;;;;;4954925;28;20516;-67
2022/07/04 12:44:41;;;;;;;26.73;5.25;;;;;;;;;;4969471;28;20512;-67
2022/07/04 12:47:09;;;;;;;25.27;5.85;;;;;;;;;;4945857;28;20498;-67
2022/07/04 12:49:36;;;;;;;30.98;5.88;;;;;;;;;;4971953;28;20039;-66
2022/07/04 12:52:07;;;;;;;66.63;7.68;;;;;;;;;;4964999;28;20035;-69
2022/07/04 12:54:34;;;;;;;33.63;4.95;;;;;;;;;;4972468;28;20030;-69
2022/07/04 12:57:05;;;;;;;33.17;4.65;;;;;;;;;;4971748;28;20054;-69
2022/07/04 12:59:33;;;;;;;19.00;3.60;;;;;;;;;;4972346;28;20054;-70
2022/07/04 13:02:00;;;;;;;18.10;3.28;;;;;;;;;;4971092;28;20033;-70
2022/07/04 13:04:27;;;;;;;27.75;3.90;;;;;;;;;;4971157;28;20035;-70
2022/07/04 13:06:54;;;;;;;17.83;3.45;;;;;;;;;;4977000;28;20543;-69
2022/07/04 13:09:21;;;;;;;19.23;3.50;;;;;;;;;;4966280;28;20039;-69
2022/07/04 13:14:33;;;;;;;18.73;2.97;;;;;;;;;;4964996;28;20066;-69
2022/07/04 13:17:00;;;;;;;16.73;3.65;;;;;;;;;;4967933;28;20038;-69
2022/07/04 13:19:27;;;;;;;17.27;3.83;;;;;;;;;;4970457;28;20031;-69
2022/07/04 13:21:55;;;;;;;19.77;4.00;;;;;;;;;;4967825;28;20031;-69
2022/07/04 13:24:22;;;;;;;21.13;3.85;;;;;;;;;;4971867;28;20030;-69
2022/07/04 13:26:49;;;;;;;22.90;4.18;;;;;;;;;;4961085;28;20039;-69
2022/07/04 13:29:16;;;;;;;21.77;4.25;;;;;;;;;;4966327;28;20030;-69
2022/07/04 13:31:43;;;;;;;24.88;4.47;;;;;;;;;;4971870;28;20081;-69
2022/07/04 13:34:10;;;;;;;25.08;4.60;;;;;;;;;;4970373;28;20030;-69
2022/07/04 13:36:37;;;;;;;25.65;4.43;;;;;;;;;;4965037;28;20031;-69
2022/07/04 13:39:04;;;;;;;26.80;4.55;;;;;;;;;;4971762;28;20031;-69
2022/07/04 13:41:32;;;;;;;31.20;4.93;;;;;;;;;;4969385;28;20023;-69
2022/07/04 13:44:00;;;;;;;25.90;4.57;;;;;;;;;;4971988;28;20062;-69
2022/07/04 13:46:27;;;;;;;28.25;4.97;;;;;;;;;;4958089;28;20039;-69
2022/07/04 13:48:54;;;;;;;24.80;4.88;;;;;;;;;;4966499;28;20039;-69
2022/07/04 13:51:21;;;;;;;20.55;4.60;;;;;;;;;;4969497;28;20561;-69
2022/07/04 13:53:48;;;;;;;27.00;4.72;;;;;;;;;;4966262;28;20039;-70
2022/07/04 13:56:16;;;;;;;27.00;4.68;;;;;;;;;;4971794;28;20141;-70
2022/07/04 13:58:45;;;;;;;30.98;5.57;;;;;;;;;;4953816;28;20473;-70
2022/07/04 14:01:12;;;;;;;32.75;5.55;;;;;;;;;;4971599;28;20476;-69
2022/07/04 14:03:39;;;;;;;31.05;5.13;;;;;;;;;;4971592;28;20117;-69
2022/07/04 14:06:07;;;;;;;24.02;4.63;;;;;;;;;;4971036;28;20038;-69
2022/07/04 14:08:34;;;;;;;26.02;5.28;;;;;;;;;;4964529;28;20504;-69
2022/07/04 14:11:01;;;;;;;53.38;5.80;;;;;;;;;;4971344;28;20033;-68
2022/07/04 14:13:28;;;;;;;39.13;5.45;;;;;;;;;;4970445;28;20035;-67
2022/07/04 14:15:55;;;;;;;28.67;4.75;;;;;;;;;;4971939;28;20027;-67
2022/07/04 14:18:22;;;;;;;30.58;5.63;;;;;;;;;;4971403;28;20047;-68
2022/07/04 14:20:50;;;;;;;27.52;4.70;;;;;;;;;;4971449;28;20041;-67
2022/07/04 14:26:03;;;;;;;24.55;5.15;;;;;;;;;;4972699;28;20136;-68
2022/07/04 14:28:30;;;;;;;26.38;4.65;;;;;;;;;;4954779;28;20038;-67
2022/07/04 14:30:57;;;;;;;31.50;4.90;;;;;;;;;;4957841;28;20027;-67
2022/07/04 14:33:24;;;;;;;32.20;5.38;;;;;;;;;;4974429;28;20121;-67
2022/07/04 14:35:51;;;;;;;27.85;5.20;;;;;;;;;;4970122;28;20035;-67
2022/07/04 14:38:19;;;;;;;28.85;4.40;;;;;;;;;;4957167;28;20038;-67
2022/07/04 14:40:49;;;;;;;27.35;5.32;;;;;;;;;;4974743;28;20038;-68
2022/07/04 14:43:19;;;;;;;19.63;4.70;;;;;;;;;;4974130;28;20090;-67
2022/07/04 14:45:47;;;;;;;28.05;5.13;;;;;;;;;;4975186;28;20046;-67
2022/07/04 14:48:15;;;;;;;29.30;5.07;;;;;;;;;;4974512;28;20018;-67
2022/07/04 14:50:42;;;;;;;35.95;5.03;;;;;;;;;;4974188;28;20037;-67
2022/07/04 14:53:09;;;;;;;21.52;4.82;;;;;;;;;;4974510;28;20492;-68
2022/07/04 14:55:36;;;;;;;32.83;5.47;;;;;;;;;;4974691;28;20030;-67
2022/07/04 14:58:03;;;;;;;20.05;4.47;;;;;;;;;;4974717;28;20039;-67
2022/07/04 15:00:31;;;;;;;20.77;4.07;;;;;;;;;;4974237;28;20492;-66
2022/07/04 15:02:58;;;;;;;13.88;4.78;;;;;;;;;;4973121;28;20035;-68
2022/07/04 15:05:25;;;;;;;19.45;4.13;;;;;;;;;;4956062;28;20035;-67